sensor_id;sensor_type;location;lat;lon;timestamp;pressure;altitude;pressure_sealevel;temperature;humidity
9421;BME280;4749;51.398;5.466;2022-11-20T00:01:30;101127.53;;;1.66;100.00
9421;BME280;4749;51.398;5.466;2022-11-20T00:03:58;101122.16;;;1.62;100.00
9421;BME280;4749;51.398;5.466;2022-11-20T00:06:27;101115.94;;;1.58;100.00
9421;BME280;4749;51.398;5.466;2022-11-20T00:08:57;101123.53;;;1.54;100.00
9421;BME280;4749;51.398;5.466;2022-11-20T00:11:27;101117.41;;;1.52;100.00
9421;BME280;4749;51.398;5.466;2022-11-20T00:13:58;101115.47;;;1.48;100.00
9421;BME280;4749;51.398;5.466;2022-11-20T00:16:29;101116.03;;;1.40;100.00
9421;BME280;4749;51.398;5.466;2022-11-20T00:18:57;101125.50;;;1.40;100.00
9421;BME280;4749;51.398;5.466;2022-11-20T00:21:29;101110.56;;;1.34;100.00
9421;BME280;4749;51.398;5.466;2022-11-20T00:23:57;101108.78;;;1.33;100.00
9421;BME280;4749;51.398;5.466;2022-11-20T00:26:26;101109.63;;;1.32;100.00
9421;BME280;4749;51.398;5.466;2022-11-20T00:28:55;101104.44;;;1.32;100.00
9421;BME280;4749;51.398;5.466;2022-11-20T00:31:23;101098.25;;;1.29;100.00
9421;BME280;4749;51.398;5.466;2022-11-20T00:33:51;101099.00;;;1.26;100.00
9421;BME280;4749;51.398;5.466;2022-11-20T00:36:22;101102.34;;;1.24;100.00
9421;BME280;4749;51.398;5.466;2022-11-20T00:38:57;101107.50;;;1.24;100.00
9421;BME280;4749;51.398;5.466;2022-11-20T00:41:27;101106.34;;;1.17;100.00
9421;BME280;4749;51.398;5.466;2022-11-20T00:43:56;101102.97;;;1.18;100.00
9421;BME280;4749;51.398;5.466;2022-11-20T00:46:26;101106.22;;;1.14;100.00
9421;BME280;4749;51.398;5.466;2022-11-20T00:48:53;101097.50;;;1.12;100.00
9421;BME280;4749;51.398;5.466;2022-11-20T00:51:24;101098.44;;;1.14;100.00
9421;BME280;4749;51.398;5.466;2022-11-20T00:53:51;101090.63;;;1.12;100.00
9421;BME280;4749;51.398;5.466;2022-11-20T00:56:19;101097.50;;;1.12;100.00
9421;BME280;4749;51.398;5.466;2022-11-20T00:58:48;101093.22;;;1.12;100.00
9421;BME280;4749;51.398;5.466;2022-11-20T01:01:19;101096.63;;;1.11;100.00
9421;BME280;4749;51.398;5.466;2022-11-20T01:03:50;101096.56;;;1.10;100.00
9421;BME280;4749;51.398;5.466;2022-11-20T01:06:25;101092.16;;;1.09;100.00
9421;BME280;4749;51.398;5.466;2022-11-20T01:08:56;101099.22;;;1.11;100.00
9421;BME280;4749;51.398;5.466;2022-11-20T01:11:30;101100.84;;;1.09;100.00
9421;BME280;4749;51.398;5.466;2022-11-20T01:14:00;101094.75;;;1.09;100.00
9421;BME280;4749;51.398;5.466;2022-11-20T01:16:34;101097.63;;;1.15;100.00
9421;BME280;4749;51.398;5.466;2022-11-20T01:19:05;101093.63;;;1.22;100.00
9421;BME280;4749;51.398;5.466;2022-11-20T01:21:37;101097.38;;;1.28;100.00
9421;BME280;4749;51.398;5.466;2022-11-20T01:24:06;101102.06;;;1.37;100.00
9421;BME280;4749;51.398;5.466;2022-11-20T01:26:37;101104.13;;;1.44;100.00
9421;BME280;4749;51.398;5.466;2022-11-20T01:29:05;101105.25;;;1.51;100.00
9421;BME280;4749;51.398;5.466;2022-11-20T01:31:36;101101.22;;;1.57;100.00
9421;BME280;4749;51.398;5.466;2022-11-20T01:34:12;101101.47;;;1.63;100.00
9421;BME280;4749;51.398;5.466;2022-11-20T01:36:45;101096.81;;;1.76;100.00
9421;BME280;4749;51.398;5.466;2022-11-20T01:39:19;101091.00;;;1.81;100.00
9421;BME280;4749;51.398;5.466;2022-11-20T01:41:54;101078.09;;;1.83;100.00
9421;BME280;4749;51.398;5.466;2022-11-20T01:44:59;101089.50;;;1.86;100.00
9421;BME280;4749;51.398;5.466;2022-11-20T01:47:47;101096.44;;;1.87;100.00
9421;BME280;4749;51.398;5.466;2022-11-20T01:50:26;101100.88;;;1.90;100.00
9421;BME280;4749;51.398;5.466;2022-11-20T01:53:08;101100.03;;;1.91;100.00
9421;BME280;4749;51.398;5.466;2022-11-20T01:56:01;101103.53;;;1.91;100.00
9421;BME280;4749;51.398;5.466;2022-11-20T01:58:53;101107.81;;;1.91;100.00
9421;BME280;4749;51.398;5.466;2022-11-20T02:01:35;101102.53;;;1.88;100.00
9421;BME280;4749;51.398;5.466;2022-11-20T02:04:03;101096.31;;;1.84;100.00
9421;BME280;4749;51.398;5.466;2022-11-20T02:06:42;101093.53;;;1.80;100.00
9421;BME280;4749;51.398;5.466;2022-11-20T02:09:15;101089.91;;;1.76;100.00
9421;BME280;4749;51.398;5.466;2022-11-20T02:11:52;101087.31;;;1.76;100.00
9421;BME280;4749;51.398;5.466;2022-11-20T02:14:21;101088.09;;;1.74;100.00
9421;BME280;4749;51.398;5.466;2022-11-20T02:16:52;101079.44;;;1.73;100.00
9421;BME280;4749;51.398;5.466;2022-11-20T02:19:32;101075.94;;;1.73;100.00
9421;BME280;4749;51.398;5.466;2022-11-20T02:22:26;101082.97;;;1.75;100.00
9421;BME280;4749;51.398;5.466;2022-11-20T02:24:58;101082.97;;;1.75;100.00
9421;BME280;4749;51.398;5.466;2022-11-20T02:27:30;101086.44;;;1.76;100.00
9421;BME280;4749;51.398;5.466;2022-11-20T02:30:02;101085.75;;;1.80;100.00
9421;BME280;4749;51.398;5.466;2022-11-20T02:32:34;101078.81;;;1.79;100.00
9421;BME280;4749;51.398;5.466;2022-11-20T02:37:51;101069.63;;;1.87;100.00
9421;BME280;4749;51.398;5.466;2022-11-20T02:40:20;101081.84;;;1.89;100.00
9421;BME280;4749;51.398;5.466;2022-11-20T02:42:51;101079.34;;;1.92;100.00
9421;BME280;4749;51.398;5.466;2022-11-20T02:45:19;101073.38;;;1.93;100.00
9421;BME280;4749;51.398;5.466;2022-11-20T02:47:47;101076.72;;;1.91;100.00
9421;BME280;4749;51.398;5.466;2022-11-20T02:50:15;101077.84;;;1.97;100.00
9421;BME280;4749;51.398;5.466;2022-11-20T02:52:44;101080.38;;;1.96;100.00
9421;BME280;4749;51.398;5.466;2022-11-20T02:55:11;101080.66;;;2.02;100.00
9421;BME280;4749;51.398;5.466;2022-11-20T02:57:39;101072.03;;;2.03;100.00
9421;BME280;4749;51.398;5.466;2022-11-20T03:00:19;101078.16;;;2.05;100.00
9421;BME280;4749;51.398;5.466;2022-11-20T03:02:47;101074.94;;;2.11;100.00
9421;BME280;4749;51.398;5.466;2022-11-20T03:05:24;101079.25;;;2.10;100.00
9421;BME280;4749;51.398;5.466;2022-11-20T03:07:53;101070.63;;;2.11;100.00
9421;BME280;4749;51.398;5.466;2022-11-20T03:10:26;101070.44;;;2.07;100.00
9421;BME280;4749;51.398;5.466;2022-11-20T03:12:59;101066.28;;;2.10;100.00
9421;BME280;4749;51.398;5.466;2022-11-20T03:15:49;101069.94;;;2.15;100.00
9421;BME280;4749;51.398;5.466;2022-11-20T03:18:46;101064.75;;;2.15;100.00
9421;BME280;4749;51.398;5.466;2022-11-20T03:24:34;101057.91;;;2.17;100.00
9421;BME280;4749;51.398;5.466;2022-11-20T03:27:17;101050.19;;;2.19;100.00
9421;BME280;4749;51.398;5.466;2022-11-20T03:29:44;101047.72;;;2.22;100.00
9421;BME280;4749;51.398;5.466;2022-11-20T03:32:21;101043.41;;;2.22;100.00
9421;BME280;4749;51.398;5.466;2022-11-20T03:34:58;101045.19;;;2.23;100.00
9421;BME280;4749;51.398;5.466;2022-11-20T03:37:28;101039.16;;;2.24;100.00
9421;BME280;4749;51.398;5.466;2022-11-20T03:39:56;101032.22;;;2.23;100.00
9421;BME280;4749;51.398;5.466;2022-11-20T03:42:27;101033.81;;;2.20;100.00
9421;BME280;4749;51.398;5.466;2022-11-20T03:45:18;101034.03;;;2.26;100.00
9421;BME280;4749;51.398;5.466;2022-11-20T03:48:06;101032.22;;;2.23;100.00
9421;BME280;4749;51.398;5.466;2022-11-20T03:51:29;101030.50;;;2.24;100.00
9421;BME280;4749;51.398;5.466;2022-11-20T03:54:19;101032.25;;;2.25;100.00
9421;BME280;4749;51.398;5.466;2022-11-20T03:57:15;101029.81;;;2.28;100.00
9421;BME280;4749;51.398;5.466;2022-11-20T03:59:51;101028.16;;;2.30;100.00
9421;BME280;4749;51.398;5.466;2022-11-20T04:03:02;101018.69;;;2.32;100.00
9421;BME280;4749;51.398;5.466;2022-11-20T04:06:18;101016.16;;;2.34;100.00
9421;BME280;4749;51.398;5.466;2022-11-20T04:12:45;101010.91;;;2.32;100.00
9421;BME280;4749;51.398;5.466;2022-11-20T04:15:46;101018.75;;;2.34;100.00
9421;BME280;4749;51.398;5.466;2022-11-20T04:18:21;101018.00;;;2.36;100.00
9421;BME280;4749;51.398;5.466;2022-11-20T04:20:52;101018.00;;;2.36;100.00
9421;BME280;4749;51.398;5.466;2022-11-20T04:23:19;101015.47;;;2.38;100.00
9421;BME280;4749;51.398;5.466;2022-11-20T04:25:54;101019.94;;;2.42;100.00
9421;BME280;4749;51.398;5.466;2022-11-20T04:28:22;101013.91;;;2.43;100.00
9421;BME280;4749;51.398;5.466;2022-11-20T04:30:53;101014.06;;;2.46;100.00
9421;BME280;4749;51.398;5.466;2022-11-20T04:33:23;101019.28;;;2.47;100.00
9421;BME280;4749;51.398;5.466;2022-11-20T04:36:10;101017.63;;;2.49;100.00
9421;BME280;4749;51.398;5.466;2022-11-20T04:38:39;101012.44;;;2.49;100.00
9421;BME280;4749;51.398;5.466;2022-11-20T04:41:14;101012.44;;;2.49;100.00
9421;BME280;4749;51.398;5.466;2022-11-20T04:43:49;101015.91;;;2.50;100.00
9421;BME280;4749;51.398;5.466;2022-11-20T04:46:19;101011.63;;;2.50;100.00
9421;BME280;4749;51.398;5.466;2022-11-20T04:48:47;101013.38;;;2.51;100.00
9421;BME280;4749;51.398;5.466;2022-11-20T04:51:15;101012.50;;;2.51;100.00
9421;BME280;4749;51.398;5.466;2022-11-20T04:53:52;101007.38;;;2.52;100.00
9421;BME280;4749;51.398;5.466;2022-11-20T04:56:29;101008.19;;;2.51;100.00
9421;BME280;4749;51.398;5.466;2022-11-20T04:59:04;101003.78;;;2.49;100.00
9421;BME280;4749;51.398;5.466;2022-11-20T05:02:18;101006.31;;;2.47;100.00
9421;BME280;4749;51.398;5.466;2022-11-20T05:04:47;100996.78;;;2.46;100.00
9421;BME280;4749;51.398;5.466;2022-11-20T05:07:20;100995.88;;;2.46;100.00
9421;BME280;4749;51.398;5.466;2022-11-20T05:09:50;100992.41;;;2.45;100.00
9421;BME280;4749;51.398;5.466;2022-11-20T05:12:21;100996.63;;;2.43;100.00
9421;BME280;4749;51.398;5.466;2022-11-20T05:15:02;100993.16;;;2.43;100.00
9421;BME280;4749;51.398;5.466;2022-11-20T05:17:30;100993.09;;;2.41;100.00
9421;BME280;4749;51.398;5.466;2022-11-20T05:19:58;100993.00;;;2.38;100.00
9421;BME280;4749;51.398;5.466;2022-11-20T05:22:34;100980.81;;;2.36;100.00
9421;BME280;4749;51.398;5.466;2022-11-20T05:25:02;100981.69;;;2.36;100.00
9421;BME280;4749;51.398;5.466;2022-11-20T05:27:31;100976.41;;;2.35;100.00
9421;BME280;4749;51.398;5.466;2022-11-20T05:29:59;100987.69;;;2.35;100.00
9421;BME280;4749;51.398;5.466;2022-11-20T05:32:32;100980.84;;;2.37;100.00
9421;BME280;4749;51.398;5.466;2022-11-20T05:34:59;100975.72;;;2.39;100.00
9421;BME280;4749;51.398;5.466;2022-11-20T05:37:36;100977.47;;;2.40;100.00
9421;BME280;4749;51.398;5.466;2022-11-20T05:40:05;100978.38;;;2.40;100.00
9421;BME280;4749;51.398;5.466;2022-11-20T05:42:33;100977.59;;;2.43;100.00
9421;BME280;4749;51.398;5.466;2022-11-20T05:45:04;100974.84;;;2.38;100.00
9421;BME280;4749;51.398;5.466;2022-11-20T05:47:35;100979.84;;;2.34;100.00
9421;BME280;4749;51.398;5.466;2022-11-20T05:50:08;100981.59;;;2.35;100.00
9421;BME280;4749;51.398;5.466;2022-11-20T05:52:41;100995.53;;;2.37;100.00
9421;BME280;4749;51.398;5.466;2022-11-20T05:55:09;101002.59;;;2.41;100.00
9421;BME280;4749;51.398;5.466;2022-11-20T06:00:34;101002.00;;;2.48;100.00
9421;BME280;4749;51.398;5.466;2022-11-20T06:03:03;101002.91;;;2.48;100.00
9421;BME280;4749;51.398;5.466;2022-11-20T06:05:36;101004.72;;;2.51;100.00
9421;BME280;4749;51.398;5.466;2022-11-20T06:08:04;101005.59;;;2.51;100.00
9421;BME280;4749;51.398;5.466;2022-11-20T06:10:35;101012.59;;;2.52;100.00
9421;BME280;4749;51.398;5.466;2022-11-20T06:13:13;101005.78;;;2.56;100.00
9421;BME280;4749;51.398;5.466;2022-11-20T06:15:41;101002.47;;;2.60;100.00
9421;BME280;4749;51.398;5.466;2022-11-20T06:18:11;101004.31;;;2.63;100.00
9421;BME280;4749;51.398;5.466;2022-11-20T06:20:39;101005.19;;;2.63;100.00
9421;BME280;4749;51.398;5.466;2022-11-20T06:23:21;100995.69;;;2.64;100.00
9421;BME280;4749;51.398;5.466;2022-11-20T06:25:48;101002.66;;;2.65;100.00
9421;BME280;4749;51.398;5.466;2022-11-20T06:28:21;100995.75;;;2.65;100.00
9421;BME280;4749;51.398;5.466;2022-11-20T06:30:52;101001.81;;;2.66;100.00
9421;BME280;4749;51.398;5.466;2022-11-20T06:33:20;101007.94;;;2.68;100.00
9421;BME280;4749;51.398;5.466;2022-11-20T06:35:47;101009.69;;;2.69;100.00
9421;BME280;4749;51.398;5.466;2022-11-20T06:38:14;101000.03;;;2.65;100.00
9421;BME280;4749;51.398;5.466;2022-11-20T06:40:44;100995.75;;;2.65;100.00
9421;BME280;4749;51.398;5.466;2022-11-20T06:43:20;100991.47;;;2.67;100.00
9421;BME280;4749;51.398;5.466;2022-11-20T06:45:56;100990.56;;;2.65;100.00
9421;BME280;4749;51.398;5.466;2022-11-20T06:48:27;100988.88;;;2.67;100.00
9421;BME280;4749;51.398;5.466;2022-11-20T06:50:57;100996.72;;;2.69;100.00
9421;BME280;4749;51.398;5.466;2022-11-20T06:53:29;100988.94;;;2.69;100.00
9421;BME280;4749;51.398;5.466;2022-11-20T06:55:57;100982.94;;;2.70;100.00
9421;BME280;4749;51.398;5.466;2022-11-20T06:58:28;100980.41;;;2.71;100.00
9421;BME280;4749;51.398;5.466;2022-11-20T07:01:02;100983.94;;;2.73;100.00
9421;BME280;4749;51.398;5.466;2022-11-20T07:03:30;100983.03;;;2.73;100.00
9421;BME280;4749;51.398;5.466;2022-11-20T07:05:58;100987.41;;;2.74;100.00
9421;BME280;4749;51.398;5.466;2022-11-20T07:08:27;100993.53;;;2.76;100.00
9421;BME280;4749;51.398;5.466;2022-11-20T07:11:02;100985.75;;;2.76;100.00
9421;BME280;4749;51.398;5.466;2022-11-20T07:13:31;100980.53;;;2.76;100.00
9421;BME280;4749;51.398;5.466;2022-11-20T07:16:05;100979.84;;;2.80;100.00
9421;BME280;4749;51.398;5.466;2022-11-20T07:18:34;100978.19;;;2.82;100.00
9421;BME280;4749;51.398;5.466;2022-11-20T07:21:07;100979.00;;;2.81;100.00
9421;BME280;4749;51.398;5.466;2022-11-20T07:23:36;100975.53;;;2.80;100.00
9421;BME280;4749;51.398;5.466;2022-11-20T07:26:09;100978.91;;;2.78;100.00
9421;BME280;4749;51.398;5.466;2022-11-20T07:28:44;100984.03;;;2.76;100.00
9421;BME280;4749;51.398;5.466;2022-11-20T07:31:15;100983.16;;;2.76;100.00
9421;BME280;4749;51.398;5.466;2022-11-20T07:33:49;100973.63;;;2.76;100.00
9421;BME280;4749;51.398;5.466;2022-11-20T07:36:16;100976.22;;;2.76;100.00
9421;BME280;4749;51.398;5.466;2022-11-20T07:38:44;100980.53;;;2.76;100.00
9421;BME280;4749;51.398;5.466;2022-11-20T07:41:12;100972.81;;;2.77;100.00
9421;BME280;4749;51.398;5.466;2022-11-20T07:43:39;100965.16;;;2.80;100.00
9421;BME280;4749;51.398;5.466;2022-11-20T07:46:08;100968.84;;;2.87;100.00
9421;BME280;4749;51.398;5.466;2022-11-20T07:48:35;100971.50;;;2.89;100.00
9421;BME280;4749;51.398;5.466;2022-11-20T07:51:02;100975.84;;;2.90;100.00
9421;BME280;4749;51.398;5.466;2022-11-20T07:53:30;100986.47;;;2.96;100.00
9421;BME280;4749;51.398;5.466;2022-11-20T07:56:00;100987.72;;;3.07;100.00
9421;BME280;4749;51.398;5.466;2022-11-20T07:58:29;100984.53;;;3.14;100.00
9421;BME280;4749;51.398;5.466;2022-11-20T08:00:56;100994.25;;;3.20;100.00
9421;BME280;4749;51.398;5.466;2022-11-20T08:03:23;100989.28;;;3.27;100.00
9421;BME280;4749;51.398;5.466;2022-11-20T08:05:51;100974.03;;;3.36;100.00
9421;BME280;4749;51.398;5.466;2022-11-20T08:08:19;100976.88;;;3.44;100.00
9421;BME280;4749;51.398;5.466;2022-11-20T08:10:47;100983.94;;;3.48;100.00
9421;BME280;4749;51.398;5.466;2022-11-20T08:13:14;100978.09;;;3.54;100.00
9421;BME280;4749;51.398;5.466;2022-11-20T08:15:59;100977.59;;;3.65;100.00
9421;BME280;4749;51.398;5.466;2022-11-20T08:18:27;100982.22;;;3.74;100.00
9421;BME280;4749;51.398;5.466;2022-11-20T08:21:02;100981.53;;;3.80;100.00
9421;BME280;4749;51.398;5.466;2022-11-20T08:23:29;100977.22;;;3.80;100.00
9421;BME280;4749;51.398;5.466;2022-11-20T08:25:57;100970.34;;;3.82;100.00
9421;BME280;4749;51.398;5.466;2022-11-20T08:28:24;100972.13;;;3.85;100.00
9421;BME280;4749;51.398;5.466;2022-11-20T08:30:51;100977.34;;;3.85;100.00
9421;BME280;4749;51.398;5.466;2022-11-20T08:33:24;100976.66;;;3.90;100.00
9421;BME280;4749;51.398;5.466;2022-11-20T08:35:51;100978.50;;;3.94;100.00
9421;BME280;4749;51.398;5.466;2022-11-20T08:38:18;100988.19;;;3.99;100.00
9421;BME280;4749;51.398;5.466;2022-11-20T08:40:45;100979.59;;;4.01;100.00
9421;BME280;4749;51.398;5.466;2022-11-20T08:43:32;100983.13;;;4.03;100.00
9421;BME280;4749;51.398;5.466;2022-11-20T08:46:00;100984.97;;;4.06;100.00
9421;BME280;4749;51.398;5.466;2022-11-20T08:48:27;100979.91;;;4.12;100.00
9421;BME280;4749;51.398;5.466;2022-11-20T08:50:58;100974.41;;;4.30;100.00
9421;BME280;4749;51.398;5.466;2022-11-20T08:53:27;100980.75;;;4.38;100.00
9421;BME280;4749;51.398;5.466;2022-11-20T08:55:56;100979.19;;;4.44;100.00
9421;BME280;4749;51.398;5.466;2022-11-20T08:58:23;100973.34;;;4.53;100.00
9421;BME280;4749;51.398;5.466;2022-11-20T09:00:50;100977.00;;;4.58;100.00
9421;BME280;4749;51.398;5.466;2022-11-20T09:03:17;100983.22;;;4.63;100.00
9421;BME280;4749;51.398;5.466;2022-11-20T09:05:44;100979.94;;;4.70;100.00
9421;BME280;4749;51.398;5.466;2022-11-20T09:08:11;100980.72;;;4.68;100.00
9421;BME280;4749;51.398;5.466;2022-11-20T09:10:39;100980.16;;;4.78;100.00
9421;BME280;4749;51.398;5.466;2022-11-20T09:13:09;100971.50;;;4.79;100.00
9421;BME280;4749;51.398;5.466;2022-11-20T09:15:36;100967.28;;;4.83;100.00
9421;BME280;4749;51.398;5.466;2022-11-20T09:18:03;100968.19;;;4.85;100.00
9421;BME280;4749;51.398;5.466;2022-11-20T09:20:32;100960.41;;;4.86;100.00
9421;BME280;4749;51.398;5.466;2022-11-20T09:22:59;100970.94;;;4.89;100.00
9421;BME280;4749;51.398;5.466;2022-11-20T09:25:26;100955.31;;;4.89;100.00
9421;BME280;4749;51.398;5.466;2022-11-20T09:27:57;100954.53;;;4.93;100.00
9421;BME280;4749;51.398;5.466;2022-11-20T09:30:26;100940.69;;;4.96;100.00
9421;BME280;4749;51.398;5.466;2022-11-20T09:32:53;100937.31;;;4.98;100.00
9421;BME280;4749;51.398;5.466;2022-11-20T09:35:20;100940.88;;;5.02;100.00
9421;BME280;4749;51.398;5.466;2022-11-20T09:37:48;100934.81;;;5.03;100.00
9421;BME280;4749;51.398;5.466;2022-11-20T09:40:25;100937.66;;;5.12;100.00
9421;BME280;4749;51.398;5.466;2022-11-20T09:43:49;100923.81;;;5.13;100.00
9421;BME280;4749;51.398;5.466;2022-11-20T09:55:19;100913.19;;;5.40;100.00
9421;BME280;4749;51.398;5.466;2022-11-20T09:57:48;100908.00;;;5.42;100.00
9421;BME280;4749;51.398;5.466;2022-11-20T10:00:18;100908.94;;;5.45;100.00
9421;BME280;4749;51.398;5.466;2022-11-20T10:03:29;100899.56;;;5.52;100.00
9421;BME280;4749;51.398;5.466;2022-11-20T10:05:53;100887.53;;;5.57;100.00
9421;BME280;4749;51.398;5.466;2022-11-20T10:09:07;100878.16;;;5.65;100.00
9421;BME280;4749;51.398;5.466;2022-11-20T10:15:49;100861.41;;;5.93;100.00
9421;BME280;4749;51.398;5.466;2022-11-20T10:21:09;100843.84;;;6.27;100.00
9421;BME280;4749;51.398;5.466;2022-11-20T10:26:46;100845.09;;;6.47;100.00
9421;BME280;4749;51.398;5.466;2022-11-20T10:29:19;100838.22;;;6.51;100.00
9421;BME280;4749;51.398;5.466;2022-11-20T10:32:01;100845.25;;;6.55;100.00
9421;BME280;4749;51.398;5.466;2022-11-20T10:34:38;100835.75;;;6.58;100.00
9421;BME280;4749;51.398;5.466;2022-11-20T10:37:31;100828.88;;;6.63;100.00
9421;BME280;4749;51.398;5.466;2022-11-20T10:43:32;100821.91;;;6.64;100.00
9421;BME280;4749;51.398;5.466;2022-11-20T10:46:08;100819.19;;;6.56;100.00
9421;BME280;4749;51.398;5.466;2022-11-20T10:48:38;100805.16;;;6.51;100.00
9421;BME280;4749;51.398;5.466;2022-11-20T10:51:33;100799.97;;;6.54;100.00
9421;BME280;4749;51.398;5.466;2022-11-20T10:56:47;100787.94;;;6.64;100.00
9421;BME280;4749;51.398;5.466;2022-11-20T11:02:19;100782.53;;;6.53;100.00
9421;BME280;4749;51.398;5.466;2022-11-20T11:04:50;100775.59;;;6.55;100.00
9421;BME280;4749;51.398;5.466;2022-11-20T11:07:33;100771.16;;;6.49;100.00
9421;BME280;4749;51.398;5.466;2022-11-20T11:10:28;100771.06;;;6.45;100.00
9421;BME280;4749;51.398;5.466;2022-11-20T11:12:53;100772.75;;;6.41;100.00
9421;BME280;4749;51.398;5.466;2022-11-20T11:15:41;100764.94;;;6.41;100.00
9421;BME280;4749;51.398;5.466;2022-11-20T11:18:11;100768.34;;;6.39;100.00
9421;BME280;4749;51.398;5.466;2022-11-20T11:20:38;100763.09;;;6.37;100.00
9421;BME280;4749;51.398;5.466;2022-11-20T11:23:29;100764.84;;;6.38;100.00
9421;BME280;4749;51.398;5.466;2022-11-20T11:26:00;100763.06;;;6.34;100.00
9421;BME280;4749;51.398;5.466;2022-11-20T11:28:28;100756.78;;;6.25;100.00
9421;BME280;4749;51.398;5.466;2022-11-20T11:30:56;100756.75;;;6.23;100.00
9421;BME280;4749;51.398;5.466;2022-11-20T11:33:32;100749.81;;;6.24;100.00
9421;BME280;4749;51.398;5.466;2022-11-20T11:36:22;100738.50;;;6.25;100.00
9421;BME280;4749;51.398;5.466;2022-11-20T11:38:52;100740.34;;;6.30;100.00
9421;BME280;4749;51.398;5.466;2022-11-20T11:41:25;100737.81;;;6.35;100.00
9421;BME280;4749;51.398;5.466;2022-11-20T11:44:02;100742.22;;;6.37;100.00
9421;BME280;4749;51.398;5.466;2022-11-20T11:46:58;100731.78;;;6.39;100.00
9421;BME280;4749;51.398;5.466;2022-11-20T11:49:25;100735.38;;;6.44;100.00
9421;BME280;4749;51.398;5.466;2022-11-20T11:52:10;100729.28;;;6.45;100.00
9421;BME280;4749;51.398;5.466;2022-11-20T11:54:55;100721.44;;;6.43;100.00
9421;BME280;4749;51.398;5.466;2022-11-20T11:57:52;100716.19;;;6.42;100.00
9421;BME280;4749;51.398;5.466;2022-11-20T12:00:22;100707.53;;;6.44;100.00
9421;BME280;4749;51.398;5.466;2022-11-20T12:11:46;100673.09;;;6.68;100.00
9421;BME280;4749;51.398;5.466;2022-11-20T12:16:59;100671.38;;;6.70;100.00
9421;BME280;4749;51.398;5.466;2022-11-20T12:19:30;100658.41;;;6.76;100.00
9421;BME280;4749;51.398;5.466;2022-11-20T12:30:20;100629.41;;;7.22;100.00
9421;BME280;4749;51.398;5.466;2022-11-20T12:47:59;100594.03;;;7.50;100.00
9421;BME280;4749;51.398;5.466;2022-11-20T12:54:20;100587.94;;;7.52;100.00
9421;BME280;4749;51.398;5.466;2022-11-20T13:00:19;100562.81;;;7.67;100.00
9421;BME280;4749;51.398;5.466;2022-11-20T13:08:51;100539.38;;;7.79;100.00
9421;BME280;4749;51.398;5.466;2022-11-20T13:11:39;100544.59;;;7.77;100.00
9421;BME280;4749;51.398;5.466;2022-11-20T13:14:35;100536.66;;;7.68;100.00
9421;BME280;4749;51.398;5.466;2022-11-20T13:20:22;100520.94;;;7.67;100.00
9421;BME280;4749;51.398;5.466;2022-11-20T13:22:55;100516.63;;;7.72;100.00
9421;BME280;4749;51.398;5.466;2022-11-20T13:25:34;100518.44;;;7.80;100.00
9421;BME280;4749;51.398;5.466;2022-11-20T13:30:50;100507.16;;;7.87;100.00
9421;BME280;4749;51.398;5.466;2022-11-20T13:33:37;100494.09;;;7.89;100.00
9421;BME280;4749;51.398;5.466;2022-11-20T13:36:27;100489.72;;;7.89;100.00
9421;BME280;4749;51.398;5.466;2022-11-20T13:38:58;100483.59;;;7.87;100.00
9421;BME280;4749;51.398;5.466;2022-11-20T13:41:29;100478.38;;;7.86;100.00
9421;BME280;4749;51.398;5.466;2022-11-20T13:44:25;100465.28;;;7.83;100.00
9421;BME280;4749;51.398;5.466;2022-11-20T13:46:53;100468.72;;;7.79;100.00
9421;BME280;4749;51.398;5.466;2022-11-20T13:49:31;100463.47;;;7.74;100.00
9421;BME280;4749;51.398;5.466;2022-11-20T13:55:31;100456.44;;;7.69;100.00
9421;BME280;4749;51.398;5.466;2022-11-20T14:01:20;100445.06;;;7.65;100.00
9421;BME280;4749;51.398;5.466;2022-11-20T14:03:48;100446.81;;;7.66;100.00
9421;BME280;4749;51.398;5.466;2022-11-20T14:06:45;100431.09;;;7.65;100.00
9421;BME280;4749;51.398;5.466;2022-11-20T14:09:28;100446.75;;;7.58;100.00
9421;BME280;4749;51.398;5.466;2022-11-20T14:11:56;100433.63;;;7.54;100.00
9421;BME280;4749;51.398;5.466;2022-11-20T14:14:26;100425.75;;;7.51;100.00
9421;BME280;4749;51.398;5.466;2022-11-20T14:17:17;100412.63;;;7.45;100.00
9421;BME280;4749;51.398;5.466;2022-11-20T14:19:48;100421.28;;;7.39;100.00
9421;BME280;4749;51.398;5.466;2022-11-20T14:22:24;100417.75;;;7.34;100.00
9421;BME280;4749;51.398;5.466;2022-11-20T14:25:06;100409.00;;;7.29;100.00
9421;BME280;4749;51.398;5.466;2022-11-20T14:27:39;100410.72;;;7.24;100.00
9421;BME280;4749;51.398;5.466;2022-11-20T14:30:23;100399.31;;;7.20;100.00
9421;BME280;4749;51.398;5.466;2022-11-20T14:32:54;100404.53;;;7.16;100.00
9421;BME280;4749;51.398;5.466;2022-11-20T14:35:29;100403.59;;;7.12;100.00
9421;BME280;4749;51.398;5.466;2022-11-20T14:37:57;100392.25;;;7.09;100.00
9421;BME280;4749;51.398;5.466;2022-11-20T14:40:35;100393.13;;;7.08;100.00
9421;BME280;4749;51.398;5.466;2022-11-20T14:43:24;100387.75;;;6.95;100.00
9421;BME280;4749;51.398;5.466;2022-11-20T14:46:12;100374.63;;;6.89;100.00
9421;BME280;4749;51.398;5.466;2022-11-20T14:51:35;100360.75;;;6.96;100.00
9421;BME280;4749;51.398;5.466;2022-11-20T14:54:15;100355.59;;;7.04;100.00
9421;BME280;4749;51.398;5.466;2022-11-20T14:57:00;100353.00;;;7.04;100.00
9421;BME280;4749;51.398;5.466;2022-11-20T14:59:34;100340.81;;;7.06;100.00
9421;BME280;4749;51.398;5.466;2022-11-20T15:02:09;100329.50;;;7.07;100.00
9421;BME280;4749;51.398;5.466;2022-11-20T15:04:56;100323.41;;;7.08;100.00
9421;BME280;4749;51.398;5.466;2022-11-20T15:07:31;100324.31;;;7.10;100.00
9421;BME280;4749;51.398;5.466;2022-11-20T15:10:09;100314.72;;;7.12;100.00
9421;BME280;4749;51.398;5.466;2022-11-20T15:12:55;100313.91;;;7.16;100.00
9421;BME280;4749;51.398;5.466;2022-11-20T15:15:33;100301.69;;;7.15;100.00
9421;BME280;4749;51.398;5.466;2022-11-20T15:18:03;100301.66;;;7.14;100.00
9421;BME280;4749;51.398;5.466;2022-11-20T15:20:36;100299.03;;;7.14;100.00
9421;BME280;4749;51.398;5.466;2022-11-20T15:23:13;100293.84;;;7.15;100.00
9421;BME280;4749;51.398;5.466;2022-11-20T15:25:41;100287.75;;;7.16;100.00
9421;BME280;4749;51.398;5.466;2022-11-20T15:30:55;100273.81;;;7.17;100.00
9421;BME280;4749;51.398;5.466;2022-11-20T15:33:23;100271.22;;;7.19;100.00
9421;BME280;4749;51.398;5.466;2022-11-20T15:35:51;100269.47;;;7.18;100.00